Portada
METAR-TAF:

METAR-TAF

Aeroports :

Merrill Municipal Airport

Merrill, Wisconsin, Estats Units d'Amèrica

latitud: 45-11N, longitud: 089-42W, altitud: 401 m

Observació

L'informe es va fer fa 21 minuts, a les 07:15 UTC
Vent 5 kt del Oest
Temperatura 7°C
Humitat 93%
Pressió 1014 hPa
Visibilitat: 16.1 km
Núvols disperses a una alçada de 1200 ft
Cel ennuvolat a una alçada de 3200 ft
Cel cobert a una alçada de 4900 ft

METAR: KRRL 260715Z AUTO 27005KT 10SM SCT012 BKN032 OVC049 07/06 A2995 RMK AO2 T00720060 TSNO

Hora: 02:36 (07:36 UTC)


TAF: manca

Observacions i pronòstics meteorològics de més de 4000 aeroports (METAR i TAF).

Les estacions disponibles són els punts grocs i vermells al mapa.

Posi el ratolí al punt desitjat per veure el nom de l'estació.

Feu clic per veure les observacions i els pronòstics meteorològics.

Per canviar el mapa: feu clic els botons verds amb una creu de color negre per apropar; al botó verd amb un guió per allunyar la imatge; o en les fletxes verdes per a mapes adjacents.


METAR-TAF: